createdAt,value
2023-01-25T00:00:10.574Z,85.97
2023-01-25T00:03:14.177Z,86.03
2023-01-25T00:06:16.455Z,87.02
2023-01-25T00:09:19.825Z,86.72
2023-01-25T00:12:21.979Z,87.85
2023-01-25T00:15:25.079Z,87.38
2023-01-25T00:18:27.439Z,88.37
2023-01-25T00:21:29.603Z,88.39
2023-01-25T00:24:32.254Z,86.62
2023-01-25T00:27:34.613Z,87.21
2023-01-25T00:30:36.748Z,87.24
2023-01-25T00:33:39.402Z,87.51
2023-01-25T00:36:42.617Z,87.48
2023-01-25T00:39:44.740Z,87.57
2023-01-25T00:42:46.870Z,87.33
2023-01-25T00:45:49.348Z,85.29
2023-01-25T00:48:55.009Z,84.12
2023-01-25T00:51:57.076Z,84.69
2023-01-25T00:54:58.998Z,84.70
2023-01-25T00:58:01.082Z,85.58
2023-01-25T01:01:04.296Z,84.78
2023-01-25T01:04:06.721Z,83.51
2023-01-25T01:07:08.976Z,83.39
2023-01-25T01:10:11.288Z,83.16
2023-01-25T01:13:13.952Z,82.57
2023-01-25T01:16:16.055Z,82.69
2023-01-25T01:19:18.350Z,82.67
2023-01-25T01:22:20.484Z,83.01
2023-01-25T01:25:22.703Z,83.14
2023-01-25T01:28:25.342Z,84.58
2023-01-25T01:31:27.603Z,84.25
2023-01-25T01:34:29.882Z,83.66
2023-01-25T01:37:31.931Z,83.43
2023-01-25T01:40:34.276Z,83.50
2023-01-25T01:43:37.164Z,84.08
2023-01-25T01:46:40.018Z,83.94
2023-01-25T01:49:47.255Z,83.68
2023-01-25T01:52:50.679Z,84.27
2023-01-25T01:55:59.576Z,84.60
2023-01-25T01:59:03.446Z,85.79
2023-01-25T02:02:06.201Z,84.14
2023-01-25T02:05:14.756Z,85.65
2023-01-25T02:08:17.664Z,86.36
2023-01-25T02:11:22.092Z,86.18
2023-01-25T02:14:24.370Z,85.62
2023-01-25T02:17:36.240Z,85.66
2023-01-25T02:20:46.309Z,85.90
2023-01-25T02:23:52.661Z,85.28
2023-01-25T02:26:54.912Z,85.47
2023-01-25T02:29:58.242Z,85.40
2023-01-25T02:33:01.319Z,84.71
2023-01-25T02:36:09.423Z,84.63
2023-01-25T02:39:20.008Z,85.12
2023-01-25T02:42:22.762Z,85.38
2023-01-25T02:45:29.404Z,84.67
2023-01-25T02:48:32.073Z,84.81
2023-01-25T02:51:37.415Z,84.22
2023-01-25T02:54:40.248Z,85.33
2023-01-25T02:57:42.593Z,83.96
2023-01-25T03:00:49.153Z,84.41
2023-01-25T03:03:51.955Z,83.86
2023-01-25T03:06:54.428Z,84.42
2023-01-25T03:09:56.872Z,84.45
2023-01-25T03:12:59.023Z,84.86
2023-01-25T03:16:10.944Z,85.37
2023-01-25T03:19:13.528Z,85.58
2023-01-25T03:22:15.734Z,86.16
2023-01-25T03:25:18.151Z,86.49
2023-01-25T03:28:20.220Z,87.19
2023-01-25T03:31:22.883Z,86.48
2023-01-25T03:34:25.039Z,86.51
2023-01-25T03:37:30.235Z,85.87
2023-01-25T03:40:35.932Z,85.11
2023-01-25T03:43:38.225Z,85.00
2023-01-25T03:46:41.858Z,84.88
2023-01-25T03:49:44.747Z,84.50
2023-01-25T03:53:01.632Z,84.09
2023-01-25T03:56:09.758Z,84.75
2023-01-25T03:59:12.727Z,84.77
2023-01-25T04:02:14.952Z,85.36
2023-01-25T04:05:17.246Z,85.59
2023-01-25T04:08:20.655Z,85.83
2023-01-25T04:11:22.814Z,86.31
2023-01-25T04:14:42.553Z,85.77
2023-01-25T04:17:45.921Z,85.95
2023-01-25T04:20:54.157Z,85.90
2023-01-25T04:23:56.592Z,85.71
2023-01-25T04:26:58.839Z,86.33
2023-01-25T04:30:00.970Z,85.42
2023-01-25T04:33:08.266Z,85.80
2023-01-25T04:36:11.123Z,86.12
2023-01-25T04:39:14.234Z,86.51
2023-01-25T04:42:16.836Z,86.28
2023-01-25T04:45:19.025Z,85.52
2023-01-25T04:48:21.280Z,84.86
2023-01-25T04:51:23.447Z,84.17
2023-01-25T04:54:25.571Z,84.31
2023-01-25T04:57:27.705Z,84.14
2023-01-25T05:00:31.342Z,83.58
2023-01-25T05:03:34.108Z,84.83
2023-01-25T05:06:36.243Z,83.82
2023-01-25T05:09:38.296Z,83.15
2023-01-25T05:12:41.772Z,84.15
2023-01-25T05:15:43.927Z,84.48
2023-01-25T05:18:49.290Z,83.36
2023-01-25T05:22:00.720Z,83.42
2023-01-25T05:25:04.100Z,82.88
2023-01-25T05:28:07.385Z,83.47
2023-01-25T05:31:10.874Z,83.34
2023-01-25T05:34:13.123Z,81.93
2023-01-25T05:37:21.069Z,81.79
2023-01-25T05:40:23.815Z,82.27
2023-01-25T05:43:25.985Z,82.75
2023-01-25T05:46:28.654Z,82.20
2023-01-25T05:49:30.951Z,82.10
2023-01-25T05:52:33.000Z,82.04
2023-01-25T05:55:38.011Z,81.08
2023-01-25T05:58:40.270Z,82.37
2023-01-25T06:01:42.360Z,82.76
2023-01-25T06:04:44.786Z,81.66
2023-01-25T06:07:47.051Z,82.85
2023-01-25T06:10:51.658Z,82.93
2023-01-25T06:13:53.632Z,82.98
2023-01-25T06:16:55.773Z,83.38
2023-01-25T06:19:58.013Z,83.84
2023-01-25T06:23:00.164Z,84.37
2023-01-25T06:26:05.297Z,84.03
2023-01-25T06:29:08.156Z,83.53
2023-01-25T06:32:10.513Z,83.95
2023-01-25T06:35:12.535Z,84.00
2023-01-25T06:38:14.552Z,82.88
2023-01-25T06:41:17.926Z,83.37
2023-01-25T06:44:19.930Z,82.83
2023-01-25T06:47:22.717Z,83.13
2023-01-25T06:50:24.934Z,83.19
2023-01-25T06:53:36.973Z,83.21
2023-01-25T06:56:39.934Z,82.18
2023-01-25T06:59:45.659Z,82.44
2023-01-25T07:02:56.985Z,82.52
2023-01-25T07:06:15.468Z,81.94
2023-01-25T07:09:29.371Z,81.89
2023-01-25T07:18:18.763Z,80.63
2023-01-25T07:21:40.825Z,81.63
2023-01-25T07:29:04.796Z,81.85
2023-01-25T07:32:34.723Z,82.02
2023-01-25T07:36:05.641Z,82.31
2023-01-25T07:39:22.471Z,81.92
2023-01-25T07:42:39.787Z,82.01
2023-01-25T07:46:07.073Z,82.64
2023-01-25T07:49:28.129Z,81.96
2023-01-25T07:53:13.267Z,81.64
2023-01-25T07:56:33.977Z,81.77
2023-01-25T07:59:37.945Z,81.33
2023-01-25T08:21:15.027Z,81.04
2023-01-25T08:24:36.078Z,79.53
2023-01-25T08:27:56.880Z,79.32
2023-01-25T08:31:40.457Z,80.07
2023-01-25T08:35:02.879Z,80.35
2023-01-25T08:45:49.265Z,80.37
2023-01-25T08:49:09.419Z,80.65
2023-01-25T08:55:57.703Z,78.40
2023-01-25T08:59:05.936Z,79.47
2023-01-25T09:02:46.237Z,79.28
2023-01-25T09:16:48.628Z,79.48
2023-01-25T09:19:57.425Z,79.85
2023-01-25T09:23:01.242Z,79.48
2023-01-25T09:26:18.663Z,79.39
2023-01-25T09:34:34.796Z,78.14
2023-01-25T09:42:45.954Z,79.76
2023-01-25T09:45:56.491Z,80.25
2023-01-25T09:49:44.383Z,79.12
2023-01-25T09:53:28.189Z,79.08
2023-01-25T09:56:47.755Z,78.64
2023-01-25T10:00:00.494Z,79.52
2023-01-25T10:03:32.178Z,78.14
2023-01-25T10:07:00.937Z,77.63
2023-01-25T10:10:39.850Z,76.93
2023-01-25T10:14:22.918Z,78.17
2023-01-25T10:17:56.508Z,77.21
2023-01-25T10:21:08.072Z,76.32
2023-01-25T10:24:20.774Z,76.96
2023-01-25T10:28:11.920Z,76.90
2023-01-25T10:31:27.660Z,77.37
2023-01-25T10:34:50.729Z,76.83
2023-01-25T10:38:35.665Z,77.07
2023-01-25T10:45:47.498Z,75.96
2023-01-25T10:53:06.613Z,76.18
2023-01-25T11:10:50.793Z,76.29
2023-01-25T11:18:22.389Z,76.75
2023-01-25T11:21:29.985Z,76.09
2023-01-25T11:24:39.994Z,76.07
2023-01-25T11:27:47.562Z,75.50
2023-01-25T11:30:54.086Z,74.49
2023-01-25T11:33:57.267Z,74.89
2023-01-25T11:37:38.240Z,76.14
2023-01-25T11:40:50.598Z,75.53
2023-01-25T11:44:12.598Z,73.89
2023-01-25T11:47:33.168Z,74.62
2023-01-25T11:50:51.212Z,75.47
2023-01-25T11:54:04.555Z,74.34
2023-01-25T11:57:45.755Z,74.21
2023-01-25T12:01:21.047Z,75.38
2023-01-25T12:04:54.732Z,74.51
2023-01-25T12:08:26.801Z,74.88
2023-01-25T12:12:16.103Z,74.21
2023-01-25T12:25:03.540Z,74.75
2023-01-25T12:32:24.677Z,74.25
2023-01-25T12:35:58.255Z,74.94
2023-01-25T12:39:25.913Z,73.90
2023-01-25T12:42:45.011Z,74.03
2023-01-25T12:45:56.298Z,73.97
2023-01-25T12:49:08.699Z,73.93
2023-01-25T12:52:44.491Z,75.13
2023-01-25T12:55:59.136Z,74.65
2023-01-25T12:59:19.178Z,74.70
2023-01-25T13:02:45.746Z,74.58
2023-01-25T13:06:12.184Z,74.71
2023-01-25T13:09:38.185Z,73.90
2023-01-25T13:13:04.214Z,73.27
2023-01-25T13:17:09.864Z,73.22
2023-01-25T13:26:01.743Z,72.96
2023-01-25T13:33:17.074Z,72.10
2023-01-25T13:37:12.167Z,72.86
2023-01-25T13:40:36.312Z,72.17
2023-01-25T13:43:48.111Z,72.76
2023-01-25T13:47:05.175Z,73.06
2023-01-25T13:50:22.137Z,74.07
2023-01-25T13:53:34.192Z,73.10
2023-01-25T13:56:42.240Z,73.06
2023-01-25T13:59:47.252Z,72.22
2023-01-25T14:03:05.023Z,73.38
2023-01-25T14:06:28.717Z,73.92
2023-01-25T14:09:40.183Z,72.85
2023-01-25T14:12:44.376Z,72.40
2023-01-25T14:16:10.915Z,72.42
2023-01-25T14:19:52.503Z,73.35
2023-01-25T14:23:02.118Z,75.28
2023-01-25T14:26:05.808Z,74.32
2023-01-25T14:29:32.506Z,74.48
2023-01-25T14:32:37.848Z,73.31
2023-01-25T14:35:55.138Z,72.85
2023-01-25T14:38:58.791Z,72.91
2023-01-25T14:42:09.129Z,73.15
2023-01-25T14:45:16.402Z,74.04
2023-01-25T14:48:45.275Z,74.85
2023-01-25T14:51:51.276Z,74.05
2023-01-25T14:55:00.570Z,73.24
2023-01-25T14:58:07.847Z,73.30
2023-01-25T15:01:23.119Z,73.46
2023-01-25T15:04:26.803Z,73.59
2023-01-25T15:07:40.858Z,74.25
2023-01-25T15:10:54.071Z,74.00
2023-01-25T15:14:03.294Z,74.16
2023-01-25T15:17:09.270Z,74.62
2023-01-25T15:20:35.145Z,74.80
2023-01-25T15:23:37.562Z,74.95
2023-01-25T15:26:40.555Z,75.34
2023-01-25T15:29:43.137Z,75.29
2023-01-25T15:32:46.950Z,75.00
2023-01-25T15:35:49.888Z,74.89
2023-01-25T15:38:52.843Z,75.12
2023-01-25T15:41:55.081Z,75.96
2023-01-25T15:44:57.337Z,75.16
2023-01-25T15:48:00.215Z,75.18
2023-01-25T15:51:04.461Z,75.36
2023-01-25T15:54:07.624Z,75.30
2023-01-25T15:57:42.687Z,74.88
2023-01-25T16:00:51.244Z,75.68
2023-01-25T16:03:57.740Z,75.60
2023-01-25T16:07:02.757Z,75.33
2023-01-25T16:10:19.755Z,76.20
2023-01-25T16:13:24.458Z,75.85
2023-01-25T16:16:28.458Z,76.71
2023-01-25T16:19:40.779Z,76.66
2023-01-25T16:22:47.882Z,76.98
2023-01-25T16:25:50.162Z,77.06
2023-01-25T16:28:53.573Z,76.67
2023-01-25T16:31:55.954Z,76.41
2023-01-25T16:34:58.327Z,76.56
2023-01-25T16:38:00.802Z,77.00
2023-01-25T16:41:05.908Z,76.37
2023-01-25T16:44:11.991Z,76.24
2023-01-25T16:47:15.708Z,76.89
2023-01-25T16:50:24.867Z,76.06
2023-01-25T16:53:29.705Z,76.52
2023-01-25T16:56:33.715Z,76.91
2023-01-25T16:59:36.692Z,76.90
2023-01-25T17:02:53.368Z,76.54
2023-01-25T17:06:01.352Z,76.28
2023-01-25T17:09:22.146Z,75.86
2023-01-25T17:12:25.133Z,76.46
2023-01-25T17:15:27.868Z,76.58
2023-01-25T17:18:30.269Z,77.09
2023-01-25T17:21:34.945Z,77.21
2023-01-25T17:24:38.621Z,77.92
2023-01-25T17:27:42.464Z,77.51
2023-01-25T17:30:46.306Z,76.97
2023-01-25T17:33:59.414Z,77.12
2023-01-25T17:37:02.278Z,77.29
2023-01-25T17:40:05.278Z,77.27
2023-01-25T17:43:09.159Z,77.75
2023-01-25T17:46:25.489Z,77.43
2023-01-25T17:49:29.663Z,77.97
2023-01-25T17:52:32.134Z,77.45
2023-01-25T17:55:42.745Z,77.79
2023-01-25T17:58:46.631Z,78.83
2023-01-25T18:01:51.492Z,78.64
2023-01-25T18:04:57.992Z,78.15
2023-01-25T18:08:00.246Z,77.51
2023-01-25T18:11:09.061Z,77.10
2023-01-25T18:14:16.966Z,77.32
2023-01-25T18:17:19.625Z,78.21
2023-01-25T18:20:25.134Z,78.30
2023-01-25T18:23:27.998Z,78.36
2023-01-25T18:26:33.445Z,78.31
2023-01-25T18:30:00.745Z,77.27
2023-01-25T18:33:33.828Z,78.47
2023-01-25T18:36:36.799Z,79.53
2023-01-25T18:39:39.973Z,79.83
2023-01-25T18:42:44.956Z,78.81
2023-01-25T18:45:57.717Z,78.21
2023-01-25T18:49:00.879Z,78.75
2023-01-25T18:52:11.458Z,78.90
2023-01-25T18:55:15.414Z,78.92
2023-01-25T18:58:18.401Z,80.64
2023-01-25T19:01:23.067Z,79.85
2023-01-25T19:04:25.751Z,80.02
2023-01-25T19:07:28.843Z,78.47
2023-01-25T19:10:34.479Z,78.50
2023-01-25T19:13:40.079Z,78.18
2023-01-25T19:16:43.283Z,78.80
2023-01-25T19:19:46.467Z,78.16
2023-01-25T19:22:51.686Z,78.08
2023-01-25T19:25:56.498Z,77.83
2023-01-25T19:29:01.821Z,78.78
2023-01-25T19:32:05.509Z,78.39
2023-01-25T19:35:08.899Z,78.85
2023-01-25T19:38:14.597Z,78.46
2023-01-25T19:41:23.942Z,78.60
2023-01-25T19:44:27.232Z,78.92
2023-01-25T19:47:30.089Z,78.60
2023-01-25T19:50:37.538Z,79.05
2023-01-25T19:53:41.756Z,78.04
2023-01-25T19:56:52.405Z,78.16
2023-01-25T19:59:55.290Z,77.51
2023-01-25T20:03:10.672Z,77.94
2023-01-25T20:06:20.538Z,79.27
2023-01-25T20:09:27.963Z,78.87
2023-01-25T20:12:31.050Z,78.37
2023-01-25T20:15:33.750Z,77.06
2023-01-25T20:18:36.320Z,76.75
2023-01-25T20:21:40.213Z,77.53
2023-01-25T20:24:43.016Z,76.93
2023-01-25T20:27:46.265Z,77.28
2023-01-25T20:30:49.699Z,77.27
2023-01-25T20:33:54.860Z,76.07
2023-01-25T20:37:00.372Z,75.89
2023-01-25T20:40:02.874Z,76.15
2023-01-25T20:43:07.075Z,76.15
2023-01-25T20:46:10.174Z,76.91
2023-01-25T20:49:17.926Z,76.86
2023-01-25T20:52:20.983Z,76.89
2023-01-25T20:55:23.285Z,75.79
2023-01-25T20:58:27.262Z,76.03
2023-01-25T21:01:36.849Z,78.79
2023-01-25T21:04:41.838Z,78.02
2023-01-25T21:07:44.806Z,78.36
2023-01-25T21:10:54.115Z,79.14
2023-01-25T21:13:59.775Z,78.58
2023-01-25T21:17:02.314Z,78.01
2023-01-25T21:20:05.949Z,78.20
2023-01-25T21:23:10.621Z,77.26
2023-01-25T21:26:22.487Z,78.10
2023-01-25T21:29:25.111Z,77.24
2023-01-25T21:32:29.158Z,76.53
2023-01-25T21:35:33.308Z,76.22
2023-01-25T21:38:36.172Z,76.18
2023-01-25T21:41:39.060Z,74.93
2023-01-25T21:45:02.698Z,75.30
2023-01-25T21:48:05.274Z,75.80
2023-01-25T21:51:42.411Z,76.53
2023-01-25T21:55:21.301Z,76.08
2023-01-25T21:58:25.503Z,77.08
2023-01-25T22:01:28.176Z,77.17
2023-01-25T22:04:36.159Z,76.51
2023-01-25T22:07:38.966Z,76.73
2023-01-25T22:10:42.004Z,76.19
2023-01-25T22:13:46.116Z,76.46
2023-01-25T22:16:48.471Z,78.37
2023-01-25T22:19:51.623Z,77.66
2023-01-25T22:22:54.497Z,77.24
2023-01-25T22:26:16.201Z,77.81
2023-01-25T22:29:19.373Z,77.82
2023-01-25T22:32:28.403Z,77.64
2023-01-25T22:35:37.315Z,78.26
2023-01-25T22:38:41.587Z,78.39
2023-01-25T22:41:44.665Z,79.27
2023-01-25T22:44:47.033Z,78.64
2023-01-25T22:47:49.536Z,79.32
2023-01-25T22:50:55.338Z,79.30
2023-01-25T22:54:00.447Z,79.13
2023-01-25T22:57:03.224Z,79.51
2023-01-25T23:00:08.637Z,79.36
2023-01-25T23:03:12.867Z,78.62
2023-01-25T23:06:26.162Z,78.80
2023-01-25T23:09:29.641Z,78.07
2023-01-25T23:12:32.312Z,78.87
2023-01-25T23:15:35.088Z,79.77
2023-01-25T23:18:52.684Z,79.02
2023-01-25T23:21:55.373Z,78.37
2023-01-25T23:24:58.021Z,79.03
2023-01-25T23:28:00.535Z,78.97
2023-01-25T23:31:11.637Z,77.58
2023-01-25T23:34:14.405Z,77.29
2023-01-25T23:37:17.006Z,76.36
2023-01-25T23:40:19.826Z,76.77
2023-01-25T23:43:22.565Z,76.78
2023-01-25T23:46:26.251Z,77.59
2023-01-25T23:49:29.973Z,77.19
2023-01-25T23:52:33.567Z,76.96
2023-01-25T23:55:36.223Z,77.98
2023-01-25T23:58:40.577Z,78.00
